Terminal Aerodrome Forecast
Issued by NWS

Home | Current Version | Previous Version | Text Only | Print | Product List | Glossary On
Versions: 1 2 3 4 5 6 7 8 9 10 11 12 13 14 15 16 17 18 19 20 21 22 23 24 25 26 27 28 29 30 31 32 33
600
FTUS41 KBTV 201746 CCA
TAFPBG
TAF COR
KPBG 201746Z 2018/2118 18007KT 5SM -RA BR OVC030
      TEMPO 2018/2022 1 1/2SM -RA BR BKN015
     FM202200 17007KT P6SM VCSH OVC015
     FM210000 16006KT P6SM VCSH OVC020 WS020/23030KT
     FM210200 16005KT P6SM OVC020
     FM210800 17006KT P6SM BKN030 WS020/23035KT
     FM211300 17008KT P6SM VCSH BKN025=

USA.gov is the U.S. government's official web portal to all federal, state and local government web resources and services.